createdAt,value
2023-05-19T00:00:30.965Z,7.72
2023-05-19T00:01:03.090Z,6.85
2023-05-19T00:01:37.662Z,6.63
2023-05-19T00:02:09.789Z,6.22
2023-05-19T00:02:46.562Z,6.72
2023-05-19T00:03:21.927Z,5.65
2023-05-19T00:04:04.873Z,6.78
2023-05-19T00:04:37.115Z,6.32
2023-05-19T00:05:10.463Z,6.38
2023-05-19T00:05:45.806Z,5.72
2023-05-19T00:06:19.362Z,6.05
2023-05-19T00:06:51.721Z,5.57
2023-05-19T00:07:26.031Z,6.07
2023-05-19T00:08:00.650Z,5.75
2023-05-19T00:08:42.032Z,5.50
2023-05-19T00:09:14.662Z,5.85
2023-05-19T00:09:47.871Z,5.38
2023-05-19T00:10:20.009Z,5.60
2023-05-19T00:10:52.103Z,6.60
2023-05-19T00:11:24.632Z,6.45
2023-05-19T00:12:01.156Z,5.72
2023-05-19T00:12:35.027Z,6.45
2023-05-19T00:13:07.046Z,5.60
2023-05-19T00:13:38.736Z,4.82
2023-05-19T00:14:10.740Z,5.85
2023-05-19T00:14:42.518Z,5.55
2023-05-19T00:15:14.713Z,5.45
2023-05-19T00:15:46.867Z,4.97
2023-05-19T00:16:18.839Z,6.25
2023-05-19T00:16:50.852Z,4.90
2023-05-19T00:17:22.666Z,5.88
2023-05-19T00:17:55.549Z,6.13
2023-05-19T00:18:29.759Z,5.75
2023-05-19T00:19:07.062Z,5.72
2023-05-19T00:19:39.520Z,5.18
2023-05-19T00:20:12.118Z,5.80
2023-05-19T00:20:44.038Z,5.45
2023-05-19T00:21:16.228Z,5.88
2023-05-19T00:21:47.973Z,5.50
2023-05-19T00:22:19.725Z,6.95
2023-05-19T00:22:51.405Z,5.97
2023-05-19T00:23:23.042Z,5.95
2023-05-19T00:23:55.085Z,5.85
2023-05-19T00:24:26.742Z,5.40
2023-05-19T00:24:58.315Z,4.72
2023-05-19T00:25:29.885Z,6.47
2023-05-19T00:26:01.477Z,6.30
2023-05-19T00:26:33.353Z,5.97
2023-05-19T00:27:11.832Z,6.43
2023-05-19T00:27:43.834Z,5.88
2023-05-19T00:28:15.582Z,6.53
2023-05-19T00:28:47.174Z,6.38
2023-05-19T00:29:19.188Z,5.95
2023-05-19T00:29:51.242Z,6.18
2023-05-19T00:30:23.022Z,5.97
2023-05-19T00:30:54.894Z,6.15
2023-05-19T00:31:26.683Z,6.50
2023-05-19T00:31:58.365Z,6.55
2023-05-19T00:32:30.080Z,6.20
2023-05-19T00:33:01.774Z,6.32
2023-05-19T00:33:34.200Z,7.22
2023-05-19T00:34:06.659Z,6.07
2023-05-19T00:34:38.413Z,6.55
2023-05-19T00:35:10.238Z,5.93
2023-05-19T00:35:42.013Z,6.35
2023-05-19T00:36:13.812Z,5.72
2023-05-19T00:36:45.498Z,7.65
2023-05-19T00:37:18.905Z,6.18
2023-05-19T00:37:50.612Z,6.93
2023-05-19T00:38:22.419Z,6.05
2023-05-19T00:38:54.289Z,6.07
2023-05-19T00:39:25.886Z,6.28
2023-05-19T00:40:05.205Z,6.45
2023-05-19T00:40:36.878Z,5.55
2023-05-19T00:41:08.589Z,6.15
2023-05-19T00:41:40.404Z,6.53
2023-05-19T00:42:12.052Z,5.50
2023-05-19T00:42:43.605Z,6.22
2023-05-19T00:43:16.159Z,5.45
2023-05-19T00:43:47.861Z,6.47
2023-05-19T00:44:19.501Z,5.65
2023-05-19T00:44:51.193Z,6.18
2023-05-19T00:45:22.978Z,5.53
2023-05-19T00:45:57.969Z,5.97
2023-05-19T00:46:30.757Z,6.15
2023-05-19T00:47:02.688Z,6.20
2023-05-19T00:47:34.754Z,6.25
2023-05-19T00:48:06.486Z,6.57
2023-05-19T00:48:38.169Z,6.32
2023-05-19T00:49:11.976Z,5.90
2023-05-19T00:49:45.561Z,6.72
2023-05-19T00:50:17.173Z,6.28
2023-05-19T00:50:50.555Z,6.03
2023-05-19T00:51:23.009Z,6.72
2023-05-19T00:51:55.768Z,6.65
2023-05-19T00:52:27.651Z,6.45
2023-05-19T00:52:59.436Z,5.75
2023-05-19T00:53:32.811Z,5.65
2023-05-19T00:54:06.232Z,5.68
2023-05-19T00:54:38.004Z,5.93
2023-05-19T00:55:13.897Z,5.50
2023-05-19T00:55:47.523Z,6.78
2023-05-19T00:56:19.162Z,7.25
2023-05-19T00:56:50.845Z,5.93
2023-05-19T00:57:30.970Z,6.38
2023-05-19T00:58:04.793Z,6.97
2023-05-19T00:58:36.946Z,6.63
2023-05-19T00:59:08.662Z,6.25
2023-05-19T00:59:41.094Z,6.93
2023-05-19T01:00:13.789Z,6.72
2023-05-19T01:00:45.886Z,6.22
2023-05-19T01:01:17.798Z,6.47
2023-05-19T01:01:49.852Z,5.90
2023-05-19T01:02:22.245Z,5.75
2023-05-19T01:02:54.304Z,5.70
2023-05-19T01:03:26.132Z,5.82
2023-05-19T01:03:59.068Z,5.45
2023-05-19T01:04:34.965Z,6.47
2023-05-19T01:05:07.042Z,6.10
2023-05-19T01:05:42.342Z,5.28
2023-05-19T01:06:15.069Z,5.25
2023-05-19T01:06:48.632Z,6.82
2023-05-19T01:07:21.203Z,6.80
2023-05-19T01:07:55.512Z,5.78
2023-05-19T01:08:28.370Z,5.97
2023-05-19T01:09:00.069Z,6.55
2023-05-19T01:09:32.292Z,6.30
2023-05-19T01:10:06.910Z,6.32
2023-05-19T01:10:38.614Z,6.80
2023-05-19T01:11:10.806Z,7.38
2023-05-19T01:11:42.644Z,7.20
2023-05-19T01:12:14.914Z,7.00
2023-05-19T01:12:47.221Z,7.70
2023-05-19T01:13:18.941Z,7.60
2023-05-19T01:13:50.700Z,6.82
2023-05-19T01:14:22.740Z,7.50
2023-05-19T01:14:54.410Z,7.07
2023-05-19T01:15:27.207Z,6.90
2023-05-19T01:16:06.984Z,7.28
2023-05-19T01:16:43.855Z,6.55
2023-05-19T01:17:34.998Z,7.22
2023-05-19T01:18:14.970Z,7.22
2023-05-19T01:19:10.935Z,6.30
2023-05-19T01:19:56.302Z,6.32
2023-05-19T01:20:35.085Z,6.70
2023-05-19T01:21:23.618Z,5.53
2023-05-19T01:22:16.574Z,6.22
2023-05-19T01:23:14.989Z,5.88
2023-05-19T01:23:54.171Z,5.25
2023-05-19T01:24:39.880Z,6.55
2023-05-19T01:25:39.248Z,5.18
2023-05-19T01:26:46.401Z,5.30
2023-05-19T01:27:49.956Z,6.13
2023-05-19T01:28:57.068Z,5.50
2023-05-19T01:29:56.062Z,5.03
2023-05-19T01:30:45.815Z,4.80
2023-05-19T01:31:18.544Z,4.38
2023-05-19T01:31:54.709Z,4.43
2023-05-19T01:32:27.159Z,5.60
2023-05-19T01:33:07.293Z,5.22
2023-05-19T01:33:40.504Z,4.68
2023-05-19T01:34:13.329Z,5.00
2023-05-19T01:34:46.486Z,5.55
2023-05-19T01:35:18.444Z,5.05
2023-05-19T01:35:51.294Z,4.93
2023-05-19T01:36:23.580Z,4.63
2023-05-19T01:36:56.071Z,4.03
2023-05-19T01:37:28.646Z,5.18
2023-05-19T01:38:01.352Z,4.65
2023-05-19T01:38:38.357Z,4.18
2023-05-19T01:39:09.947Z,5.25
2023-05-19T01:39:42.637Z,4.60
2023-05-19T01:40:14.510Z,4.65
2023-05-19T01:40:47.372Z,4.65
2023-05-19T01:41:21.827Z,4.15
2023-05-19T01:41:54.070Z,5.40
2023-05-19T01:42:26.532Z,4.95
2023-05-19T01:42:59.647Z,4.85
2023-05-19T01:43:31.716Z,5.35
2023-05-19T01:44:03.490Z,4.78
2023-05-19T01:44:35.505Z,4.78
2023-05-19T01:45:10.862Z,4.45
2023-05-19T01:45:42.798Z,5.15
2023-05-19T01:46:14.966Z,4.72
2023-05-19T01:46:47.359Z,4.50
2023-05-19T01:47:19.260Z,4.90
2023-05-19T01:47:56.771Z,4.85
2023-05-19T01:48:29.917Z,4.80
2023-05-19T01:49:02.962Z,5.57
2023-05-19T01:49:35.031Z,4.60
2023-05-19T01:50:07.412Z,5.18
2023-05-19T01:50:39.726Z,5.20
2023-05-19T01:51:14.895Z,5.07
2023-05-19T01:51:49.512Z,4.72
2023-05-19T01:52:21.170Z,4.75
2023-05-19T01:52:54.391Z,4.55
2023-05-19T01:53:26.488Z,5.53
2023-05-19T01:53:58.177Z,5.03
2023-05-19T01:54:29.799Z,4.88
2023-05-19T01:55:01.549Z,5.15
2023-05-19T01:55:34.633Z,4.45
2023-05-19T01:56:07.351Z,4.88
2023-05-19T01:57:00.757Z,4.78
2023-05-19T01:57:51.670Z,4.50
2023-05-19T01:58:42.045Z,5.45
2023-05-19T01:59:27.299Z,4.88
2023-05-19T02:00:09.419Z,5.35
2023-05-19T02:01:03.929Z,5.03
2023-05-19T02:01:50.620Z,4.82
2023-05-19T02:02:30.322Z,5.20
2023-05-19T02:03:08.253Z,4.70
2023-05-19T02:03:50.092Z,5.93
2023-05-19T02:04:39.873Z,5.00
2023-05-19T02:05:31.440Z,5.35
2023-05-19T02:06:40.776Z,5.35
2023-05-19T02:07:23.516Z,4.35
2023-05-19T02:08:22.754Z,4.40
2023-05-19T02:09:00.781Z,4.90
2023-05-19T02:09:41.632Z,4.35
2023-05-19T02:10:34.583Z,4.13
2023-05-19T02:11:40.627Z,4.68
2023-05-19T02:12:25.459Z,3.97
2023-05-19T02:12:59.384Z,5.30
2023-05-19T02:13:34.333Z,5.63
2023-05-19T02:14:16.068Z,5.47
2023-05-19T02:15:05.205Z,4.65
2023-05-19T02:15:44.862Z,5.80
2023-05-19T02:16:17.595Z,4.40
2023-05-19T02:16:49.454Z,5.13
2023-05-19T02:17:22.821Z,5.35
2023-05-19T02:17:55.805Z,5.20
2023-05-19T02:18:30.052Z,5.70
2023-05-19T02:19:01.785Z,5.50
2023-05-19T02:19:41.036Z,5.82
2023-05-19T02:20:13.205Z,5.70
2023-05-19T02:20:44.808Z,5.68
2023-05-19T02:21:16.645Z,5.72
2023-05-19T02:21:49.960Z,5.20
2023-05-19T02:22:21.589Z,5.90
2023-05-19T02:22:53.207Z,6.47
2023-05-19T02:23:25.098Z,7.15
2023-05-19T02:23:56.699Z,5.72
2023-05-19T02:24:28.270Z,6.65
2023-05-19T02:25:00.411Z,6.05
2023-05-19T02:25:32.215Z,5.88
2023-05-19T02:26:04.788Z,5.75
2023-05-19T02:26:38.246Z,7.03
2023-05-19T02:27:09.834Z,7.07
2023-05-19T02:27:41.780Z,6.78
2023-05-19T02:28:13.377Z,6.03
2023-05-19T02:28:44.998Z,6.28
2023-05-19T02:29:16.707Z,6.43
2023-05-19T02:29:48.279Z,6.95
2023-05-19T02:30:19.969Z,6.03
2023-05-19T02:30:51.560Z,6.93
2023-05-19T02:31:23.261Z,6.63
2023-05-19T02:31:55.059Z,6.05
2023-05-19T02:32:26.831Z,5.55
2023-05-19T02:32:58.711Z,6.88
2023-05-19T02:33:30.438Z,7.32
2023-05-19T02:34:02.063Z,5.75
2023-05-19T02:34:34.831Z,7.28
2023-05-19T02:35:09.397Z,5.93
2023-05-19T02:35:41.265Z,5.93
2023-05-19T02:36:14.539Z,6.18
2023-05-19T02:36:49.915Z,6.80
2023-05-19T02:37:23.870Z,7.55
2023-05-19T02:37:55.474Z,6.13
2023-05-19T02:38:27.458Z,5.85
2023-05-19T02:39:00.926Z,6.05
2023-05-19T02:39:35.201Z,6.57
2023-05-19T02:40:07.652Z,6.35
2023-05-19T02:40:39.301Z,6.20
2023-05-19T02:41:11.437Z,6.47
2023-05-19T02:41:45.233Z,9.10
2023-05-19T02:42:18.461Z,6.43
2023-05-19T02:42:50.361Z,6.70
2023-05-19T02:43:22.105Z,7.72
2023-05-19T02:43:53.940Z,6.82
2023-05-19T02:44:25.600Z,7.32
2023-05-19T02:44:57.210Z,7.35
2023-05-19T02:45:29.291Z,6.90
2023-05-19T02:46:02.392Z,6.93
2023-05-19T02:46:34.645Z,6.22
2023-05-19T02:47:06.375Z,8.15
2023-05-19T02:47:38.423Z,7.10
2023-05-19T02:48:11.311Z,6.38
2023-05-19T02:48:42.956Z,6.70
2023-05-19T02:49:14.726Z,6.45
2023-05-19T02:49:46.402Z,6.38
2023-05-19T02:50:18.250Z,6.47
2023-05-19T02:50:49.859Z,6.05
2023-05-19T02:51:21.583Z,6.60
2023-05-19T02:51:53.595Z,7.13
2023-05-19T02:52:25.188Z,7.78
2023-05-19T02:52:56.857Z,6.50
2023-05-19T02:53:34.672Z,7.22
2023-05-19T02:54:06.414Z,6.25
2023-05-19T02:54:38.022Z,8.45
2023-05-19T02:55:09.974Z,6.90
2023-05-19T02:55:42.371Z,6.25
2023-05-19T02:56:14.134Z,6.45
2023-05-19T02:56:47.776Z,6.95
2023-05-19T02:57:19.485Z,7.03
2023-05-19T02:57:51.192Z,7.35
2023-05-19T02:58:23.018Z,5.88
2023-05-19T02:58:54.686Z,6.40
2023-05-19T02:59:26.366Z,7.05
2023-05-19T02:59:58.023Z,6.70
2023-05-19T03:00:29.692Z,7.53
2023-05-19T03:01:01.402Z,7.25
2023-05-19T03:01:33.790Z,6.40
2023-05-19T03:02:05.661Z,6.60
2023-05-19T03:02:37.687Z,6.68
2023-05-19T03:03:10.655Z,6.32
2023-05-19T03:03:44.547Z,6.90
2023-05-19T03:04:16.217Z,6.47
2023-05-19T03:04:47.886Z,7.18
2023-05-19T03:05:20.214Z,6.43
2023-05-19T03:05:51.967Z,6.57
2023-05-19T03:06:25.446Z,6.38
2023-05-19T03:06:57.843Z,6.78
2023-05-19T03:07:30.400Z,5.90
2023-05-19T03:08:02.083Z,6.45
2023-05-19T03:08:33.747Z,7.35
2023-05-19T03:09:05.975Z,5.88
2023-05-19T03:09:37.938Z,6.57
2023-05-19T03:10:09.750Z,7.30
2023-05-19T03:10:41.510Z,7.07
2023-05-19T03:11:16.972Z,6.13
2023-05-19T03:11:48.656Z,7.20
2023-05-19T03:12:20.805Z,6.68
2023-05-19T03:12:52.489Z,6.50
2023-05-19T03:13:24.075Z,6.95
2023-05-19T03:13:55.961Z,6.88
2023-05-19T03:14:28.352Z,5.85
2023-05-19T03:15:00.517Z,6.90
2023-05-19T03:15:32.499Z,7.07
2023-05-19T03:16:04.263Z,6.50
2023-05-19T03:16:36.364Z,6.20
2023-05-19T03:17:08.452Z,7.47
2023-05-19T03:17:40.848Z,6.22
2023-05-19T03:18:12.764Z,6.13
2023-05-19T03:18:44.615Z,6.13
2023-05-19T03:19:16.779Z,7.20
2023-05-19T03:19:48.475Z,6.90
2023-05-19T03:20:20.612Z,6.72
2023-05-19T03:20:54.071Z,6.28
2023-05-19T03:21:26.530Z,6.85
2023-05-19T03:21:58.292Z,6.78
2023-05-19T03:22:30.008Z,5.97
2023-05-19T03:23:01.629Z,7.60
2023-05-19T03:23:33.679Z,6.18
2023-05-19T03:24:05.588Z,6.18
2023-05-19T03:24:38.144Z,6.25
2023-05-19T03:25:10.297Z,7.13
2023-05-19T03:25:42.021Z,8.13
2023-05-19T03:26:13.736Z,6.78
2023-05-19T03:26:45.955Z,6.82
2023-05-19T03:27:17.534Z,6.80
2023-05-19T03:27:49.209Z,6.70
2023-05-19T03:28:20.867Z,6.32
2023-05-19T03:28:52.705Z,6.45
2023-05-19T03:29:24.692Z,5.30
2023-05-19T03:29:56.649Z,5.68
2023-05-19T03:30:28.671Z,7.35
2023-05-19T03:31:11.422Z,5.22
2023-05-19T03:31:43.770Z,5.95
2023-05-19T03:32:15.878Z,5.95
2023-05-19T03:32:47.859Z,7.10
2023-05-19T03:33:20.051Z,5.60
2023-05-19T03:33:52.140Z,6.50
2023-05-19T03:34:24.367Z,6.63
2023-05-19T03:34:56.161Z,6.22
2023-05-19T03:35:28.927Z,5.60
2023-05-19T03:36:04.137Z,5.60
2023-05-19T03:36:40.192Z,5.47
2023-05-19T03:37:17.232Z,6.28
2023-05-19T03:37:48.972Z,7.05
2023-05-19T03:38:23.725Z,5.70
2023-05-19T03:39:00.946Z,7.32
2023-05-19T03:39:33.025Z,5.93
2023-05-19T03:40:05.842Z,5.95
2023-05-19T03:40:39.038Z,5.82
2023-05-19T03:41:14.775Z,6.13
2023-05-19T03:41:46.571Z,6.13
2023-05-19T03:42:18.301Z,6.43
2023-05-19T03:42:49.901Z,6.00
2023-05-19T03:43:21.633Z,6.53
2023-05-19T03:43:59.005Z,6.55
2023-05-19T03:44:30.769Z,6.30
2023-05-19T03:45:12.092Z,6.15
2023-05-19T03:45:44.533Z,6.30
2023-05-19T03:46:48.774Z,5.68
2023-05-19T03:47:38.977Z,6.93
2023-05-19T03:48:26.962Z,7.43
2023-05-19T03:49:28.103Z,6.22
2023-05-19T03:50:02.588Z,7.68
2023-05-19T03:50:52.972Z,6.05
2023-05-19T03:51:30.405Z,6.22
2023-05-19T03:52:09.916Z,5.40
2023-05-19T03:52:53.765Z,7.18
2023-05-19T03:53:33.055Z,6.55
2023-05-19T03:54:04.836Z,6.45
2023-05-19T03:54:36.674Z,8.13
2023-05-19T03:55:09.939Z,7.40
2023-05-19T03:55:41.658Z,7.20
2023-05-19T03:56:13.995Z,6.20
2023-05-19T03:56:46.054Z,8.00
2023-05-19T03:57:17.733Z,7.45
2023-05-19T03:57:49.407Z,7.47
2023-05-19T03:58:21.043Z,8.48
2023-05-19T03:58:54.778Z,7.10
2023-05-19T03:59:26.818Z,7.00
2023-05-19T03:59:58.408Z,7.85
2023-05-19T04:00:31.716Z,6.47
2023-05-19T04:01:03.729Z,6.72
2023-05-19T04:01:36.558Z,6.85
2023-05-19T04:02:08.541Z,6.80
2023-05-19T04:02:41.090Z,6.88
2023-05-19T04:03:12.948Z,6.50
2023-05-19T04:03:45.739Z,7.55
2023-05-19T04:04:17.397Z,7.95
2023-05-19T04:04:51.222Z,6.55
2023-05-19T04:05:23.058Z,6.70
2023-05-19T04:05:54.829Z,8.30
2023-05-19T04:06:26.441Z,8.45
2023-05-19T04:06:58.923Z,6.85
2023-05-19T04:07:31.215Z,8.40
2023-05-19T04:08:02.892Z,7.70
2023-05-19T04:08:34.500Z,7.72
2023-05-19T04:09:14.102Z,8.27
2023-05-19T04:09:46.197Z,8.85
2023-05-19T04:10:17.818Z,9.10
2023-05-19T04:10:49.407Z,7.28
2023-05-19T04:11:21.496Z,7.47
2023-05-19T04:11:53.125Z,6.70
2023-05-19T04:12:24.787Z,8.60
2023-05-19T04:12:57.737Z,7.47
2023-05-19T04:13:33.454Z,8.18
2023-05-19T04:14:05.461Z,8.13
2023-05-19T04:14:37.074Z,8.88
2023-05-19T04:15:11.440Z,7.35
2023-05-19T04:15:43.166Z,7.88
2023-05-19T04:16:15.010Z,8.07
2023-05-19T04:16:46.644Z,8.00
2023-05-19T04:17:18.262Z,8.45
2023-05-19T04:17:49.938Z,8.10
2023-05-19T04:18:23.292Z,7.50
2023-05-19T04:18:54.900Z,8.30
2023-05-19T04:19:26.623Z,9.05
2023-05-19T04:20:00.177Z,8.90
2023-05-19T04:20:33.489Z,8.18
2023-05-19T04:21:05.785Z,8.63
2023-05-19T04:21:37.345Z,8.55
2023-05-19T04:22:09.594Z,8.68
2023-05-19T04:22:41.511Z,8.63
2023-05-19T04:23:13.149Z,8.60
2023-05-19T04:23:44.758Z,8.48
2023-05-19T04:24:16.344Z,8.75
2023-05-19T04:24:48.932Z,8.77
2023-05-19T04:25:20.536Z,8.60
2023-05-19T04:25:52.265Z,9.45
2023-05-19T04:26:25.034Z,8.55
2023-05-19T04:26:56.759Z,8.77
2023-05-19T04:27:30.056Z,8.85
2023-05-19T04:28:03.254Z,8.48
2023-05-19T04:28:39.018Z,8.50
2023-05-19T04:29:10.810Z,8.23
2023-05-19T04:29:43.139Z,8.20
2023-05-19T04:30:22.065Z,8.80
2023-05-19T04:30:53.877Z,8.70
2023-05-19T04:31:27.475Z,8.48
2023-05-19T04:32:00.946Z,8.57
2023-05-19T04:32:33.064Z,7.80
2023-05-19T04:33:05.396Z,9.63
2023-05-19T04:33:37.579Z,8.38
2023-05-19T04:34:10.036Z,8.15
2023-05-19T04:34:45.333Z,8.95
2023-05-19T04:35:22.514Z,8.93
2023-05-19T04:35:54.912Z,9.25
2023-05-19T04:36:26.621Z,8.32
2023-05-19T04:36:59.214Z,8.13
2023-05-19T04:37:31.182Z,8.63
2023-05-19T04:38:03.792Z,9.50
2023-05-19T04:38:39.891Z,9.35
2023-05-19T04:39:14.468Z,8.50
2023-05-19T04:39:49.640Z,9.43
2023-05-19T04:40:23.748Z,8.50
2023-05-19T04:40:56.899Z,7.57
2023-05-19T04:41:28.939Z,7.93
2023-05-19T04:42:02.641Z,7.75
2023-05-19T04:42:34.876Z,8.25
2023-05-19T04:43:09.461Z,8.45
2023-05-19T04:43:44.528Z,8.27
2023-05-19T04:44:18.465Z,8.75
2023-05-19T04:44:52.491Z,8.05
2023-05-19T04:45:28.380Z,8.85
2023-05-19T04:46:06.392Z,7.25
2023-05-19T04:46:38.216Z,8.95
2023-05-19T04:47:11.261Z,9.23
2023-05-19T04:47:43.310Z,9.88
2023-05-19T04:48:15.318Z,8.27
2023-05-19T04:48:47.651Z,7.82
2023-05-19T04:49:19.479Z,9.23
2023-05-19T04:49:55.517Z,9.65
2023-05-19T04:50:28.642Z,9.45
2023-05-19T04:51:01.882Z,8.68
2023-05-19T04:51:33.634Z,8.95
2023-05-19T04:52:07.783Z,9.05
2023-05-19T04:52:41.792Z,9.00
2023-05-19T04:53:13.426Z,9.40
2023-05-19T04:53:45.334Z,8.93
2023-05-19T04:54:18.665Z,9.18
2023-05-19T04:54:51.066Z,9.43
2023-05-19T04:55:23.054Z,8.95
2023-05-19T04:55:55.526Z,9.43
2023-05-19T04:56:28.902Z,9.02
2023-05-19T04:57:01.116Z,8.70
2023-05-19T04:57:34.730Z,9.25
2023-05-19T04:58:06.678Z,8.93
2023-05-19T04:58:39.703Z,9.00
2023-05-19T04:59:13.028Z,8.90
2023-05-19T04:59:44.636Z,9.73
2023-05-19T05:00:16.898Z,8.27
2023-05-19T05:00:58.680Z,9.68
2023-05-19T05:01:31.352Z,9.25
2023-05-19T05:02:04.357Z,9.20
2023-05-19T05:02:37.137Z,9.50
2023-05-19T05:03:09.043Z,9.80
2023-05-19T05:03:41.189Z,9.25
2023-05-19T05:04:12.999Z,9.40
2023-05-19T05:04:46.455Z,9.77
2023-05-19T05:05:18.095Z,8.65
2023-05-19T05:05:50.063Z,10.73
2023-05-19T05:06:25.184Z,9.30
2023-05-19T05:06:57.461Z,9.57
2023-05-19T05:07:32.239Z,9.88
2023-05-19T05:08:04.346Z,10.10
2023-05-19T05:08:41.453Z,8.23
2023-05-19T05:09:17.415Z,8.25
2023-05-19T05:09:49.547Z,9.88
2023-05-19T05:10:21.969Z,9.02
2023-05-19T05:10:54.158Z,9.60
2023-05-19T05:11:26.807Z,10.50
2023-05-19T05:11:59.179Z,7.95
2023-05-19T05:12:31.294Z,9.27
2023-05-19T05:13:03.345Z,8.75
2023-05-19T05:13:35.536Z,8.55
2023-05-19T05:14:07.492Z,8.23
2023-05-19T05:14:40.303Z,8.05
2023-05-19T05:15:13.366Z,8.25
2023-05-19T05:15:45.470Z,7.85
2023-05-19T05:16:18.176Z,8.63
2023-05-19T05:16:50.203Z,7.63
2023-05-19T05:17:27.176Z,8.80
2023-05-19T05:17:59.468Z,7.57
2023-05-19T05:18:31.442Z,7.97
2023-05-19T05:19:03.653Z,8.02
2023-05-19T05:19:35.954Z,8.15
2023-05-19T05:20:08.228Z,7.70
2023-05-19T05:20:40.957Z,7.95
2023-05-19T05:21:12.950Z,7.05
2023-05-19T05:21:45.869Z,8.15
2023-05-19T05:22:18.890Z,8.02
2023-05-19T05:22:50.961Z,7.30
2023-05-19T05:23:23.253Z,7.22
2023-05-19T05:23:55.947Z,7.72
2023-05-19T05:24:30.544Z,8.60
2023-05-19T05:25:05.101Z,8.38
2023-05-19T05:25:37.127Z,7.45
2023-05-19T05:26:14.642Z,7.40
2023-05-19T05:26:46.576Z,7.43
2023-05-19T05:27:18.555Z,7.55
2023-05-19T05:27:50.154Z,8.00
2023-05-19T05:28:21.847Z,7.38
2023-05-19T05:28:53.472Z,7.88
2023-05-19T05:29:25.934Z,7.50
2023-05-19T05:29:59.219Z,9.02
2023-05-19T05:30:33.156Z,7.38
2023-05-19T05:31:04.857Z,8.10
2023-05-19T05:31:37.068Z,8.20
2023-05-19T05:32:09.118Z,7.82
2023-05-19T05:32:41.279Z,7.57
2023-05-19T05:33:22.318Z,7.25
2023-05-19T05:33:54.108Z,8.20
2023-05-19T05:34:29.206Z,6.97
2023-05-19T05:35:00.820Z,7.88
2023-05-19T05:35:32.749Z,7.25
2023-05-19T05:36:05.224Z,6.53
2023-05-19T05:36:36.941Z,6.93
2023-05-19T05:37:08.625Z,6.65
2023-05-19T05:37:40.967Z,6.78
2023-05-19T05:38:12.679Z,6.43
2023-05-19T05:38:47.063Z,6.95
2023-05-19T05:39:18.766Z,5.75
2023-05-19T05:39:50.722Z,6.10
2023-05-19T05:40:22.345Z,6.88
2023-05-19T05:40:54.013Z,6.65
2023-05-19T05:41:27.342Z,6.43
2023-05-19T05:41:59.044Z,6.75
2023-05-19T05:42:30.880Z,5.85
2023-05-19T05:43:02.496Z,5.45
2023-05-19T05:43:37.277Z,6.07
2023-05-19T05:44:10.532Z,6.80
2023-05-19T05:44:44.220Z,6.05
2023-05-19T05:45:15.970Z,6.40
2023-05-19T05:45:47.814Z,5.63
2023-05-19T05:46:20.138Z,5.55
2023-05-19T05:46:52.353Z,5.82
2023-05-19T05:47:24.318Z,6.10
2023-05-19T05:47:56.981Z,5.32
2023-05-19T05:48:28.956Z,5.07
2023-05-19T05:49:01.294Z,4.93
2023-05-19T05:49:36.589Z,5.57
2023-05-19T05:50:10.792Z,5.38
2023-05-19T05:50:45.521Z,5.22
2023-05-19T05:51:23.516Z,5.63
2023-05-19T05:52:05.729Z,4.32
2023-05-19T05:52:46.306Z,4.57
2023-05-19T05:53:30.001Z,4.85
2023-05-19T05:54:06.376Z,3.75
2023-05-19T05:54:42.658Z,4.97
2023-05-19T05:55:16.165Z,4.68
2023-05-19T05:55:48.440Z,5.30
2023-05-19T05:56:22.177Z,5.38
2023-05-19T05:56:57.402Z,4.50
2023-05-19T05:57:30.799Z,5.63
2023-05-19T05:58:03.619Z,4.88
2023-05-19T05:58:37.419Z,4.63
2023-05-19T05:59:09.312Z,5.13
2023-05-19T05:59:40.898Z,4.75
2023-05-19T06:00:15.951Z,5.22
2023-05-19T06:00:49.362Z,6.07
2023-05-19T06:01:28.136Z,4.57
2023-05-19T06:02:04.979Z,4.85
2023-05-19T06:02:37.855Z,4.75
2023-05-19T06:03:11.107Z,5.22
2023-05-19T06:03:52.488Z,5.25
2023-05-19T06:04:31.079Z,5.38
2023-05-19T06:05:02.970Z,4.22
2023-05-19T06:05:49.989Z,4.57
2023-05-19T06:06:24.488Z,5.10
2023-05-19T06:07:01.184Z,5.05
2023-05-19T06:07:37.669Z,5.13
2023-05-19T06:08:09.535Z,5.03
2023-05-19T06:08:41.222Z,5.43
2023-05-19T06:09:13.137Z,5.55
2023-05-19T06:09:44.735Z,5.63
2023-05-19T06:10:16.865Z,4.03
2023-05-19T06:10:48.582Z,4.75
2023-05-19T06:11:21.453Z,4.53
2023-05-19T06:11:53.257Z,5.55
2023-05-19T06:12:26.655Z,5.07
2023-05-19T06:12:58.364Z,4.25
2023-05-19T06:13:31.179Z,4.57
2023-05-19T06:14:02.789Z,4.88
2023-05-19T06:15:08.107Z,5.07
2023-05-19T06:16:02.034Z,5.90
2023-05-19T06:16:43.438Z,3.95
2023-05-19T06:17:15.066Z,4.55
2023-05-19T06:17:46.793Z,4.20
2023-05-19T06:18:18.806Z,4.55
2023-05-19T06:18:52.871Z,3.88
2023-05-19T06:19:26.024Z,4.72
2023-05-19T06:19:57.704Z,3.88
2023-05-19T06:20:31.292Z,3.92
2023-05-19T06:21:03.489Z,4.28
2023-05-19T06:21:35.588Z,4.50
2023-05-19T06:22:07.199Z,4.55
2023-05-19T06:22:39.000Z,4.15
2023-05-19T06:23:11.086Z,4.00
2023-05-19T06:23:42.704Z,3.75
2023-05-19T06:24:15.918Z,5.00
2023-05-19T06:24:47.526Z,3.70
2023-05-19T06:25:20.562Z,4.20
2023-05-19T06:25:52.487Z,3.63
2023-05-19T06:26:24.292Z,3.45
2023-05-19T06:26:55.904Z,3.63
2023-05-19T06:27:27.558Z,4.05
2023-05-19T06:27:59.419Z,4.50
2023-05-19T06:28:33.096Z,3.67
2023-05-19T06:29:04.877Z,3.47
2023-05-19T06:29:36.561Z,3.72
2023-05-19T06:30:11.449Z,3.83
2023-05-19T06:30:56.581Z,4.47
2023-05-19T06:31:43.830Z,3.88
2023-05-19T06:32:18.327Z,3.45
2023-05-19T06:32:50.886Z,4.07
2023-05-19T06:33:22.655Z,4.03
2023-05-19T06:33:54.326Z,4.47
2023-05-19T06:34:26.924Z,4.38
2023-05-19T06:34:58.887Z,4.70
2023-05-19T06:35:31.429Z,3.67
2023-05-19T06:36:06.160Z,3.65
2023-05-19T06:36:37.805Z,4.28
2023-05-19T06:37:09.683Z,3.92
2023-05-19T06:37:42.597Z,4.30
2023-05-19T06:38:15.031Z,4.32
2023-05-19T06:38:46.909Z,4.88
2023-05-19T06:39:18.557Z,4.00
2023-05-19T06:39:52.649Z,3.55
2023-05-19T06:40:25.983Z,4.95
2023-05-19T06:40:58.751Z,3.60
2023-05-19T06:41:30.621Z,4.50
2023-05-19T06:42:04.454Z,4.05
2023-05-19T06:43:05.005Z,4.15
2023-05-19T06:44:03.861Z,3.72
2023-05-19T06:44:38.091Z,4.57
2023-05-19T06:45:14.487Z,3.58
2023-05-19T06:45:46.146Z,4.38
2023-05-19T06:46:17.981Z,4.40
2023-05-19T06:46:49.868Z,4.00
2023-05-19T06:47:21.700Z,3.80
2023-05-19T06:47:54.459Z,3.67
2023-05-19T06:48:27.259Z,5.40
2023-05-19T06:49:01.157Z,4.38
2023-05-19T06:49:36.503Z,3.67
2023-05-19T06:50:10.433Z,3.50
2023-05-19T06:50:44.404Z,4.20
2023-05-19T06:51:21.685Z,4.30
2023-05-19T06:51:56.682Z,3.63
2023-05-19T06:52:28.400Z,3.53
2023-05-19T06:53:00.372Z,5.00
2023-05-19T06:53:33.691Z,3.22
2023-05-19T06:54:52.720Z,3.78
2023-05-19T06:55:26.735Z,4.03
2023-05-19T06:56:00.751Z,3.47
2023-05-19T06:56:36.756Z,3.70
2023-05-19T06:57:08.425Z,3.80
2023-05-19T06:57:40.091Z,3.22
2023-05-19T06:58:18.965Z,3.42
2023-05-19T06:58:50.649Z,3.42
2023-05-19T06:59:23.767Z,3.40
2023-05-19T06:59:56.013Z,3.65
2023-05-19T07:00:29.628Z,3.28
2023-05-19T07:01:01.937Z,3.28
2023-05-19T07:01:39.491Z,3.40
2023-05-19T07:02:17.326Z,3.95
2023-05-19T07:02:50.315Z,3.17
2023-05-19T07:03:22.221Z,3.88
2023-05-19T07:03:54.024Z,3.25
2023-05-19T07:04:26.482Z,3.10
2023-05-19T07:04:58.118Z,3.88
2023-05-19T07:05:29.972Z,3.60
2023-05-19T07:06:08.116Z,3.67
2023-05-19T07:06:41.024Z,5.65
2023-05-19T07:07:14.120Z,4.00
2023-05-19T07:07:46.510Z,4.25
2023-05-19T07:08:22.056Z,3.97
2023-05-19T07:08:54.033Z,3.38
2023-05-19T07:09:26.292Z,3.15
2023-05-19T07:09:57.958Z,3.45
2023-05-19T07:10:33.866Z,3.72
2023-05-19T07:11:05.839Z,2.92
2023-05-19T07:11:37.549Z,3.75
2023-05-19T07:12:13.026Z,3.65
2023-05-19T07:12:44.686Z,3.72
2023-05-19T07:13:16.925Z,2.70
2023-05-19T07:13:48.555Z,4.05
2023-05-19T07:14:26.589Z,2.88
2023-05-19T07:14:58.241Z,3.38
2023-05-19T07:15:30.068Z,3.40
2023-05-19T07:16:01.847Z,3.38
2023-05-19T07:16:34.070Z,3.80
2023-05-19T07:17:05.882Z,3.58
2023-05-19T07:17:38.704Z,2.92
2023-05-19T07:18:10.650Z,3.28
2023-05-19T07:18:42.394Z,4.05
2023-05-19T07:19:15.637Z,3.90
2023-05-19T07:19:49.500Z,3.92
2023-05-19T07:20:21.313Z,4.10
2023-05-19T07:20:53.869Z,3.78
2023-05-19T07:21:26.245Z,3.35
2023-05-19T07:21:59.339Z,3.83
2023-05-19T07:22:31.053Z,3.05
2023-05-19T07:23:05.698Z,2.78
2023-05-19T07:23:37.454Z,3.08
2023-05-19T07:24:09.103Z,5.35
2023-05-19T07:24:40.820Z,2.53
2023-05-19T07:25:15.386Z,3.90
2023-05-19T07:25:47.189Z,3.55
2023-05-19T07:26:18.910Z,3.50
2023-05-19T07:26:50.554Z,3.20
2023-05-19T07:27:22.149Z,3.65
2023-05-19T07:27:57.438Z,4.07
2023-05-19T07:28:29.146Z,2.83
2023-05-19T07:29:00.852Z,3.53
2023-05-19T07:29:32.510Z,3.30
2023-05-19T07:30:05.717Z,2.72
2023-05-19T07:30:39.167Z,3.28
2023-05-19T07:31:13.394Z,3.10
2023-05-19T07:31:45.341Z,3.17
2023-05-19T07:32:17.146Z,2.95
2023-05-19T07:32:48.961Z,3.35
2023-05-19T07:33:20.729Z,3.08
2023-05-19T07:33:55.040Z,2.90
2023-05-19T07:34:26.769Z,2.45
2023-05-19T07:34:58.351Z,2.78